createdAt,value
2023-04-12T00:02:04.839Z,2.60
2023-04-12T00:06:10.378Z,2.60
2023-04-12T00:10:14.734Z,2.70
2023-04-12T00:14:17.531Z,2.70
2023-04-12T00:18:25.041Z,2.70
2023-04-12T00:22:30.562Z,2.70
2023-04-12T00:26:40.349Z,2.80
2023-04-12T00:30:43.192Z,2.80
2023-04-12T00:34:48.595Z,3.00
2023-04-12T00:38:51.586Z,3.10
2023-04-12T00:42:56.814Z,3.30
2023-04-12T00:47:00.359Z,3.50
2023-04-12T00:51:07.859Z,3.60
2023-04-12T00:55:11.069Z,3.80
2023-04-12T00:59:15.373Z,3.90
2023-04-12T01:03:23.170Z,4.00
2023-04-12T01:07:37.249Z,4.00
2023-04-12T01:11:47.774Z,4.00
2023-04-12T01:15:56.440Z,4.00
2023-04-12T01:20:14.493Z,4.00
2023-04-12T01:24:34.139Z,4.00
2023-04-12T01:28:42.047Z,4.10
2023-04-12T01:32:48.229Z,4.10
2023-04-12T01:36:52.697Z,4.10
2023-04-12T01:40:59.080Z,4.10
2023-04-12T01:45:04.916Z,4.10
2023-04-12T01:49:07.804Z,4.20
2023-04-12T01:53:15.313Z,4.10
2023-04-12T01:57:19.997Z,4.10
2023-04-12T02:01:24.980Z,4.20
2023-04-12T02:05:31.288Z,4.20
2023-04-12T02:09:38.264Z,4.20
2023-04-12T02:13:49.776Z,4.30
2023-04-12T02:17:54.570Z,4.40
2023-04-12T02:21:57.848Z,4.50
2023-04-12T02:26:09.560Z,4.60
2023-04-12T02:30:15.215Z,4.60
2023-04-12T02:34:24.848Z,4.70
2023-04-12T02:38:30.254Z,4.80
2023-04-12T02:42:33.376Z,4.80
2023-04-12T02:46:38.590Z,4.80
2023-04-12T02:50:44.631Z,4.90
2023-04-12T02:54:49.004Z,4.90
2023-04-12T02:58:51.779Z,5.00
2023-04-12T03:03:01.878Z,5.00
2023-04-12T03:07:06.721Z,5.10
2023-04-12T03:11:12.736Z,5.10
2023-04-12T03:15:15.555Z,5.10
2023-04-12T03:19:18.336Z,5.20
2023-04-12T03:23:27.567Z,5.20
2023-04-12T03:27:30.366Z,5.20
2023-04-12T03:31:33.385Z,5.20
2023-04-12T03:35:36.671Z,5.10
2023-04-12T03:39:41.079Z,5.10
2023-04-12T03:43:48.169Z,5.10
2023-04-12T03:47:53.524Z,5.10
2023-04-12T03:51:58.583Z,5.10
2023-04-12T03:56:05.476Z,5.10
2023-04-12T04:00:10.015Z,5.10
2023-04-12T04:04:14.352Z,5.10
2023-04-12T04:08:22.643Z,5.10
2023-04-12T04:12:28.706Z,5.10
2023-04-12T04:16:33.351Z,5.20
2023-04-12T04:20:36.201Z,5.20
2023-04-12T04:24:39.226Z,5.20
2023-04-12T04:28:47.121Z,5.30
2023-04-12T04:32:51.201Z,5.30
2023-04-12T04:36:54.014Z,5.40
2023-04-12T04:40:56.905Z,5.40
2023-04-12T04:45:12.633Z,5.50
2023-04-12T04:49:15.540Z,5.50
2023-04-12T04:53:22.345Z,5.50
2023-04-12T04:57:26.704Z,5.60
2023-04-12T05:01:36.109Z,5.70
2023-04-12T05:05:39.844Z,5.70
2023-04-12T05:09:42.858Z,5.80
2023-04-12T05:13:45.679Z,5.90
2023-04-12T05:17:54.121Z,6.00
2023-04-12T05:21:57.009Z,6.10
2023-04-12T05:26:05.670Z,6.30
2023-04-12T05:30:12.110Z,6.40
2023-04-12T05:34:18.697Z,6.50
2023-04-12T05:38:21.581Z,6.60
2023-04-12T05:42:28.449Z,6.70
2023-04-12T05:46:31.274Z,6.80
2023-04-12T05:50:35.472Z,6.90
2023-04-12T05:54:38.281Z,7.10
2023-04-12T05:58:41.055Z,7.20
2023-04-12T06:02:45.019Z,7.30
2023-04-12T06:06:51.716Z,7.50
2023-04-12T06:10:54.587Z,7.60
2023-04-12T06:14:57.663Z,7.80
2023-04-12T06:19:00.890Z,7.90
2023-04-12T06:23:05.226Z,8.00
2023-04-12T06:27:08.247Z,8.10
2023-04-12T06:31:11.337Z,8.20
2023-04-12T06:35:16.929Z,8.20
2023-04-12T06:39:21.070Z,8.20
2023-04-12T06:43:24.981Z,8.10
2023-04-12T06:47:27.773Z,8.10
2023-04-12T06:51:31.953Z,8.00
2023-04-12T06:55:39.557Z,8.00
2023-04-12T06:59:42.341Z,8.00
2023-04-12T07:03:45.384Z,8.10
2023-04-12T07:07:51.060Z,8.20
2023-04-12T07:11:55.356Z,8.30
2023-04-12T07:16:03.119Z,8.30
2023-04-12T07:20:08.740Z,8.30
2023-04-12T07:24:16.150Z,8.60
2023-04-12T07:28:23.649Z,8.70
2023-04-12T07:32:27.280Z,8.90
2023-04-12T07:36:34.205Z,9.10
2023-04-12T07:40:39.760Z,9.30
2023-04-12T07:44:43.939Z,9.30
2023-04-12T07:48:49.379Z,9.30
2023-04-12T07:52:56.858Z,9.40
2023-04-12T07:57:01.027Z,9.40
2023-04-12T08:01:05.846Z,9.60
2023-04-12T08:05:09.731Z,9.40
2023-04-12T08:09:13.563Z,9.30
2023-04-12T08:13:17.548Z,9.40
2023-04-12T08:17:21.991Z,9.30
2023-04-12T08:21:24.937Z,9.20
2023-04-12T08:25:30.987Z,9.20
2023-04-12T08:29:34.901Z,9.20
2023-04-12T08:33:39.059Z,9.20
2023-04-12T08:37:41.978Z,9.40
2023-04-12T08:41:48.735Z,9.30
2023-04-12T08:45:54.007Z,9.30
2023-04-12T08:49:58.675Z,9.30
2023-04-12T08:54:01.503Z,9.30
2023-04-12T08:58:10.124Z,9.50
2023-04-12T09:02:15.591Z,9.70
2023-04-12T09:06:24.811Z,9.90
2023-04-12T09:10:37.444Z,10.00
2023-04-12T09:14:43.898Z,10.10
2023-04-12T09:18:51.255Z,10.10
2023-04-12T09:22:57.014Z,10.00
2023-04-12T09:27:07.504Z,10.00
2023-04-12T09:31:17.873Z,9.90
2023-04-12T09:35:34.662Z,10.00
2023-04-12T09:39:45.136Z,10.10
2023-04-12T09:43:47.924Z,10.30
2023-04-12T09:47:51.207Z,10.50
2023-04-12T09:51:59.385Z,10.80
2023-04-12T09:56:04.682Z,10.80
2023-04-12T10:00:12.709Z,10.90
2023-04-12T10:04:18.464Z,10.90
2023-04-12T10:08:25.216Z,10.90
2023-04-12T10:12:29.862Z,11.00
2023-04-12T10:16:41.851Z,10.80
2023-04-12T10:20:45.045Z,11.00
2023-04-12T10:24:48.230Z,11.10
2023-04-12T10:29:26.093Z,11.00
2023-04-12T10:33:32.031Z,10.80
2023-04-12T10:38:01.051Z,10.80
2023-04-12T10:42:22.952Z,10.80
2023-04-12T10:46:51.734Z,10.90
2023-04-12T10:51:14.157Z,10.90
2023-04-12T10:55:30.008Z,10.80
2023-04-12T10:59:55.964Z,10.50
2023-04-12T11:04:20.313Z,10.40
2023-04-12T11:08:26.919Z,10.60
2023-04-12T11:12:31.814Z,10.90
2023-04-12T11:16:34.809Z,11.10
2023-04-12T11:20:40.660Z,11.20
2023-04-12T11:24:45.523Z,11.20
2023-04-12T11:28:52.996Z,11.10
2023-04-12T11:32:55.906Z,11.20
2023-04-12T11:37:00.980Z,11.40
2023-04-12T11:41:03.905Z,11.20
2023-04-12T11:45:15.716Z,11.10
2023-04-12T11:49:22.033Z,11.30
2023-04-12T11:53:33.008Z,11.50
2023-04-12T11:57:36.681Z,11.50
2023-04-12T12:01:39.998Z,11.50
2023-04-12T12:05:47.395Z,11.50
2023-04-12T12:09:52.187Z,11.50
2023-04-12T12:14:00.754Z,11.70
2023-04-12T12:18:03.900Z,11.70
2023-04-12T12:22:12.693Z,11.60
2023-04-12T12:26:22.764Z,11.60
2023-04-12T12:30:25.709Z,11.40
2023-04-12T12:34:36.891Z,11.40
2023-04-12T12:38:45.568Z,11.90
2023-04-12T12:42:54.798Z,12.00
2023-04-12T12:47:10.172Z,11.70
2023-04-12T12:51:18.190Z,11.60
2023-04-12T12:55:24.348Z,11.50
2023-04-12T12:59:29.832Z,11.60
2023-04-12T13:03:33.260Z,12.00
2023-04-12T13:07:39.723Z,12.50
2023-04-12T13:11:46.086Z,12.70
2023-04-12T13:15:58.721Z,13.10
2023-04-12T13:20:03.097Z,13.20
2023-04-12T13:24:07.979Z,13.50
2023-04-12T13:28:12.385Z,13.70
2023-04-12T13:32:18.795Z,13.60
2023-04-12T13:36:24.194Z,13.40
2023-04-12T13:40:27.100Z,13.30
2023-04-12T13:44:30.443Z,13.20
2023-04-12T13:48:36.188Z,13.20
2023-04-12T13:52:43.524Z,13.20
2023-04-12T13:56:46.413Z,13.10
2023-04-12T14:00:56.879Z,13.10
2023-04-12T14:05:01.241Z,13.00
2023-04-12T14:09:05.861Z,13.00
2023-04-12T14:13:13.230Z,13.00
2023-04-12T14:17:16.309Z,12.90
2023-04-12T14:21:22.759Z,12.90
2023-04-12T14:25:25.617Z,12.90
2023-04-12T14:29:28.533Z,12.90
2023-04-12T14:33:34.083Z,13.10
2023-04-12T14:37:43.198Z,13.20
2023-04-12T14:41:51.441Z,13.30
2023-04-12T14:45:57.080Z,13.50
2023-04-12T14:50:02.108Z,13.70
2023-04-12T14:54:08.206Z,13.70
2023-04-12T14:58:16.509Z,13.50
2023-04-12T15:02:21.633Z,13.40
2023-04-12T15:06:28.738Z,13.30
2023-04-12T15:10:41.182Z,13.20
2023-04-12T15:14:46.663Z,13.20
2023-04-12T15:18:53.858Z,13.20
2023-04-12T15:22:56.822Z,13.10
2023-04-12T15:27:03.693Z,13.00
2023-04-12T15:31:12.418Z,13.00
2023-04-12T15:35:26.953Z,13.10
2023-04-12T15:39:32.180Z,13.20
2023-04-12T15:43:42.054Z,13.20
2023-04-12T15:47:46.995Z,13.10
2023-04-12T15:51:50.043Z,13.10
2023-04-12T15:55:55.455Z,13.10
2023-04-12T15:59:59.908Z,13.00
2023-04-12T16:04:07.083Z,13.00
2023-04-12T16:08:10.928Z,12.90
2023-04-12T16:12:13.752Z,12.90
2023-04-12T16:16:39.696Z,12.90
2023-04-12T16:20:42.829Z,12.90
2023-04-12T16:24:45.609Z,12.90
2023-04-12T16:28:48.517Z,12.90
2023-04-12T16:32:56.058Z,12.80
2023-04-12T16:36:58.859Z,12.80
2023-04-12T16:41:02.422Z,12.80
2023-04-12T16:45:06.097Z,12.70
2023-04-12T16:49:11.911Z,12.70
2023-04-12T16:53:16.379Z,12.60
2023-04-12T16:57:19.202Z,12.50
2023-04-12T17:01:22.442Z,12.40
2023-04-12T17:05:27.164Z,12.40
2023-04-12T17:09:32.452Z,12.50
2023-04-12T17:13:36.694Z,12.50
2023-04-12T17:17:39.594Z,12.40
2023-04-12T17:21:46.911Z,12.30
2023-04-12T17:25:49.972Z,12.30
2023-04-12T17:29:52.927Z,12.20
2023-04-12T17:33:56.216Z,12.10
2023-04-12T17:38:05.070Z,11.90
2023-04-12T17:42:10.962Z,11.80
2023-04-12T17:46:13.813Z,11.80
2023-04-12T17:50:16.822Z,11.70
2023-04-12T17:54:21.452Z,11.70
2023-04-12T17:58:24.530Z,11.60
2023-04-12T18:02:30.954Z,11.50
2023-04-12T18:06:36.224Z,11.50
2023-04-12T18:10:40.413Z,11.40
2023-04-12T18:14:49.006Z,11.40
2023-04-12T18:18:54.868Z,11.30
2023-04-12T18:22:58.741Z,11.20
2023-04-12T18:27:07.051Z,11.20
2023-04-12T18:31:09.909Z,11.20
2023-04-12T18:35:12.745Z,11.10
2023-04-12T18:39:18.030Z,11.10
2023-04-12T18:43:25.870Z,11.10
2023-04-12T18:47:28.810Z,11.10
2023-04-12T18:51:34.153Z,11.20
2023-04-12T18:55:41.620Z,11.20
2023-04-12T18:59:47.880Z,11.30
2023-04-12T19:03:53.569Z,11.30
2023-04-12T19:07:56.565Z,11.30
2023-04-12T19:11:59.475Z,11.40
2023-04-12T19:16:19.484Z,11.40
2023-04-12T19:20:24.055Z,11.40
2023-04-12T19:24:27.133Z,11.40
2023-04-12T19:28:29.984Z,11.40
2023-04-12T19:32:35.763Z,11.40
2023-04-12T19:36:40.256Z,11.30
2023-04-12T19:40:45.320Z,11.20
2023-04-12T19:44:48.141Z,11.20
2023-04-12T19:48:54.825Z,11.00
2023-04-12T19:53:02.945Z,10.90
2023-04-12T19:57:13.288Z,10.70
2023-04-12T20:01:16.271Z,10.60
2023-04-12T20:05:22.581Z,10.50
2023-04-12T20:09:26.204Z,10.50
2023-04-12T20:13:30.842Z,10.40
2023-04-12T20:17:34.458Z,10.40
2023-04-12T20:21:43.111Z,10.40
2023-04-12T20:25:51.934Z,10.40
2023-04-12T20:29:54.855Z,10.40
2023-04-12T20:33:58.857Z,10.40
2023-04-12T20:38:05.760Z,10.40
2023-04-12T20:42:12.452Z,10.30
2023-04-12T20:46:28.234Z,10.30
2023-04-12T20:50:38.747Z,10.40
2023-04-12T20:54:43.023Z,10.30
2023-04-12T20:58:48.403Z,10.30
2023-04-12T23:37:48.234Z,9.20
2023-04-12T23:41:54.093Z,9.20
2023-04-12T23:45:57.835Z,9.30
2023-04-12T23:50:00.678Z,9.30
2023-04-12T23:54:04.929Z,9.20
2023-04-12T23:58:08.214Z,9.20
